sensor_id;sensor_type;location;lat;lon;timestamp;temperature;humidity
44509;DHT22;30214;52.246;14.408;2023-07-31T00:02:22;16.00;99.90
44509;DHT22;30214;52.246;14.408;2023-07-31T00:04:49;16.00;99.90
44509;DHT22;30214;52.246;14.408;2023-07-31T00:07:16;16.00;99.90
44509;DHT22;30214;52.246;14.408;2023-07-31T00:09:43;16.00;99.90
44509;DHT22;30214;52.246;14.408;2023-07-31T00:12:11;16.00;99.90
44509;DHT22;30214;52.246;14.408;2023-07-31T00:14:38;16.00;99.90
44509;DHT22;30214;52.246;14.408;2023-07-31T00:17:05;15.90;99.90
44509;DHT22;30214;52.246;14.408;2023-07-31T00:19:33;15.90;99.90
44509;DHT22;30214;52.246;14.408;2023-07-31T00:22:01;15.80;99.90
44509;DHT22;30214;52.246;14.408;2023-07-31T00:24:27;15.90;99.90
44509;DHT22;30214;52.246;14.408;2023-07-31T00:26:54;15.90;99.90
44509;DHT22;30214;52.246;14.408;2023-07-31T00:29:22;16.00;99.90
44509;DHT22;30214;52.246;14.408;2023-07-31T00:31:49;16.00;99.90
44509;DHT22;30214;52.246;14.408;2023-07-31T00:34:17;16.00;99.90
44509;DHT22;30214;52.246;14.408;2023-07-31T00:36:46;16.10;99.90
44509;DHT22;30214;52.246;14.408;2023-07-31T00:39:15;16.10;99.90
44509;DHT22;30214;52.246;14.408;2023-07-31T00:41:44;16.00;99.90
44509;DHT22;30214;52.246;14.408;2023-07-31T00:44:11;16.00;99.90
44509;DHT22;30214;52.246;14.408;2023-07-31T00:46:38;16.00;99.90
44509;DHT22;30214;52.246;14.408;2023-07-31T00:49:06;15.90;99.90
44509;DHT22;30214;52.246;14.408;2023-07-31T00:51:33;15.90;99.90
44509;DHT22;30214;52.246;14.408;2023-07-31T00:54:03;15.80;99.90
44509;DHT22;30214;52.246;14.408;2023-07-31T00:56:31;15.70;99.90
44509;DHT22;30214;52.246;14.408;2023-07-31T00:58:58;15.70;99.90
44509;DHT22;30214;52.246;14.408;2023-07-31T01:01:25;15.50;99.90
44509;DHT22;30214;52.246;14.408;2023-07-31T01:03:53;15.40;99.90
44509;DHT22;30214;52.246;14.408;2023-07-31T01:06:25;15.30;99.90
44509;DHT22;30214;52.246;14.408;2023-07-31T01:09:02;15.30;99.90
44509;DHT22;30214;52.246;14.408;2023-07-31T01:11:31;15.20;99.90
44509;DHT22;30214;52.246;14.408;2023-07-31T01:14:00;15.20;99.90
44509;DHT22;30214;52.246;14.408;2023-07-31T01:16:28;15.10;99.90
44509;DHT22;30214;52.246;14.408;2023-07-31T01:18:55;15.10;99.90
44509;DHT22;30214;52.246;14.408;2023-07-31T01:21:35;15.10;99.90
44509;DHT22;30214;52.246;14.408;2023-07-31T01:24:20;15.00;99.90
44509;DHT22;30214;52.246;14.408;2023-07-31T01:26:53;15.00;99.90
44509;DHT22;30214;52.246;14.408;2023-07-31T01:29:23;15.00;99.90
44509;DHT22;30214;52.246;14.408;2023-07-31T01:31:53;14.90;99.90
44509;DHT22;30214;52.246;14.408;2023-07-31T01:34:22;15.00;99.90
44509;DHT22;30214;52.246;14.408;2023-07-31T01:36:49;14.90;99.90
44509;DHT22;30214;52.246;14.408;2023-07-31T01:39:16;14.90;99.90
44509;DHT22;30214;52.246;14.408;2023-07-31T01:41:44;14.90;99.90
44509;DHT22;30214;52.246;14.408;2023-07-31T01:44:12;14.90;99.90
44509;DHT22;30214;52.246;14.408;2023-07-31T01:46:39;14.90;99.90
44509;DHT22;30214;52.246;14.408;2023-07-31T01:49:07;14.90;99.90
44509;DHT22;30214;52.246;14.408;2023-07-31T01:51:35;14.90;99.90
44509;DHT22;30214;52.246;14.408;2023-07-31T01:54:02;14.90;99.90
44509;DHT22;30214;52.246;14.408;2023-07-31T01:56:29;14.90;99.90
44509;DHT22;30214;52.246;14.408;2023-07-31T01:58:56;14.90;99.90
44509;DHT22;30214;52.246;14.408;2023-07-31T02:01:25;15.00;99.90
44509;DHT22;30214;52.246;14.408;2023-07-31T02:03:52;15.00;99.90
44509;DHT22;30214;52.246;14.408;2023-07-31T02:06:22;15.00;99.90
44509;DHT22;30214;52.246;14.408;2023-07-31T02:08:49;15.10;99.90
44509;DHT22;30214;52.246;14.408;2023-07-31T02:11:16;15.10;99.90
44509;DHT22;30214;52.246;14.408;2023-07-31T02:13:43;15.10;99.90
44509;DHT22;30214;52.246;14.408;2023-07-31T02:16:10;15.20;99.90
44509;DHT22;30214;52.246;14.408;2023-07-31T02:18:39;15.30;99.90
44509;DHT22;30214;52.246;14.408;2023-07-31T02:21:06;15.30;99.90
44509;DHT22;30214;52.246;14.408;2023-07-31T02:23:33;15.40;99.90
44509;DHT22;30214;52.246;14.408;2023-07-31T02:26:00;15.40;99.90
44509;DHT22;30214;52.246;14.408;2023-07-31T02:28:28;15.40;99.90
44509;DHT22;30214;52.246;14.408;2023-07-31T02:30:55;15.40;99.90
44509;DHT22;30214;52.246;14.408;2023-07-31T02:33:22;15.40;99.90
44509;DHT22;30214;52.246;14.408;2023-07-31T02:35:50;15.40;99.90
44509;DHT22;30214;52.246;14.408;2023-07-31T02:38:17;15.50;99.90
44509;DHT22;30214;52.246;14.408;2023-07-31T02:40:45;15.40;99.90
44509;DHT22;30214;52.246;14.408;2023-07-31T02:43:12;15.50;99.90
44509;DHT22;30214;52.246;14.408;2023-07-31T02:45:39;15.50;99.90
44509;DHT22;30214;52.246;14.408;2023-07-31T02:48:06;15.50;99.90
44509;DHT22;30214;52.246;14.408;2023-07-31T02:50:33;15.50;99.90
44509;DHT22;30214;52.246;14.408;2023-07-31T02:53:02;15.50;99.90
44509;DHT22;30214;52.246;14.408;2023-07-31T02:55:29;15.60;99.90
44509;DHT22;30214;52.246;14.408;2023-07-31T02:57:57;15.50;99.90
44509;DHT22;30214;52.246;14.408;2023-07-31T03:00:24;15.50;99.90
44509;DHT22;30214;52.246;14.408;2023-07-31T03:02:51;15.50;99.90
44509;DHT22;30214;52.246;14.408;2023-07-31T03:05:18;15.50;99.90
44509;DHT22;30214;52.246;14.408;2023-07-31T03:07:45;15.50;99.90
44509;DHT22;30214;52.246;14.408;2023-07-31T03:10:14;15.50;99.90
44509;DHT22;30214;52.246;14.408;2023-07-31T03:12:41;15.50;99.90
44509;DHT22;30214;52.246;14.408;2023-07-31T03:15:09;15.50;99.90
44509;DHT22;30214;52.246;14.408;2023-07-31T03:17:36;15.60;99.90
44509;DHT22;30214;52.246;14.408;2023-07-31T03:20:04;15.50;99.90
44509;DHT22;30214;52.246;14.408;2023-07-31T03:22:31;15.50;99.90
44509;DHT22;30214;52.246;14.408;2023-07-31T03:25:00;15.50;99.90
44509;DHT22;30214;52.246;14.408;2023-07-31T03:27:28;15.50;99.90
44509;DHT22;30214;52.246;14.408;2023-07-31T03:29:56;15.50;99.90
44509;DHT22;30214;52.246;14.408;2023-07-31T03:32:24;15.50;99.90
44509;DHT22;30214;52.246;14.408;2023-07-31T03:34:52;15.60;99.90
44509;DHT22;30214;52.246;14.408;2023-07-31T03:37:19;15.50;99.90
44509;DHT22;30214;52.246;14.408;2023-07-31T03:39:46;15.50;99.90
44509;DHT22;30214;52.246;14.408;2023-07-31T03:42:13;15.60;99.90
44509;DHT22;30214;52.246;14.408;2023-07-31T03:44:42;15.50;99.90
44509;DHT22;30214;52.246;14.408;2023-07-31T03:47:10;15.60;99.90
44509;DHT22;30214;52.246;14.408;2023-07-31T03:49:37;15.60;99.90
44509;DHT22;30214;52.246;14.408;2023-07-31T03:52:04;15.70;99.90
44509;DHT22;30214;52.246;14.408;2023-07-31T03:54:32;15.60;99.90
44509;DHT22;30214;52.246;14.408;2023-07-31T03:56:59;15.70;99.90
44509;DHT22;30214;52.246;14.408;2023-07-31T03:59:26;15.70;99.90
44509;DHT22;30214;52.246;14.408;2023-07-31T04:01:54;15.70;99.90
44509;DHT22;30214;52.246;14.408;2023-07-31T04:04:21;15.70;99.90
44509;DHT22;30214;52.246;14.408;2023-07-31T04:06:48;15.70;99.90
44509;DHT22;30214;52.246;14.408;2023-07-31T04:09:15;15.80;99.90
44509;DHT22;30214;52.246;14.408;2023-07-31T04:11:42;15.80;99.90
44509;DHT22;30214;52.246;14.408;2023-07-31T04:14:09;15.80;99.90
44509;DHT22;30214;52.246;14.408;2023-07-31T04:16:36;15.80;99.90
44509;DHT22;30214;52.246;14.408;2023-07-31T04:19:05;15.80;99.90
44509;DHT22;30214;52.246;14.408;2023-07-31T04:21:32;15.80;99.90
44509;DHT22;30214;52.246;14.408;2023-07-31T04:23:59;15.80;99.90
44509;DHT22;30214;52.246;14.408;2023-07-31T04:26:26;15.80;99.90
44509;DHT22;30214;52.246;14.408;2023-07-31T04:28:53;15.80;99.90
44509;DHT22;30214;52.246;14.408;2023-07-31T04:31:20;15.80;99.90
44509;DHT22;30214;52.246;14.408;2023-07-31T04:33:47;15.80;99.90
44509;DHT22;30214;52.246;14.408;2023-07-31T04:36:15;15.70;99.90
44509;DHT22;30214;52.246;14.408;2023-07-31T04:38:42;15.80;99.90
44509;DHT22;30214;52.246;14.408;2023-07-31T04:41:10;15.90;99.90
44509;DHT22;30214;52.246;14.408;2023-07-31T04:43:37;15.90;99.90
44509;DHT22;30214;52.246;14.408;2023-07-31T04:46:04;15.90;99.90
44509;DHT22;30214;52.246;14.408;2023-07-31T04:48:31;15.90;99.90
44509;DHT22;30214;52.246;14.408;2023-07-31T04:50:58;15.90;99.90
44509;DHT22;30214;52.246;14.408;2023-07-31T04:53:27;16.00;99.90
44509;DHT22;30214;52.246;14.408;2023-07-31T04:55:54;15.90;99.90
44509;DHT22;30214;52.246;14.408;2023-07-31T04:58:21;15.90;99.90
44509;DHT22;30214;52.246;14.408;2023-07-31T05:00:48;16.00;99.90
44509;DHT22;30214;52.246;14.408;2023-07-31T05:03:15;16.00;99.90
44509;DHT22;30214;52.246;14.408;2023-07-31T05:05:42;16.00;99.90
44509;DHT22;30214;52.246;14.408;2023-07-31T05:08:09;16.00;99.90
44509;DHT22;30214;52.246;14.408;2023-07-31T05:10:38;16.10;99.90
44509;DHT22;30214;52.246;14.408;2023-07-31T05:13:05;16.00;99.90
44509;DHT22;30214;52.246;14.408;2023-07-31T05:15:32;16.00;99.90
44509;DHT22;30214;52.246;14.408;2023-07-31T05:17:59;16.00;99.90
44509;DHT22;30214;52.246;14.408;2023-07-31T05:20:26;16.00;99.90
44509;DHT22;30214;52.246;14.408;2023-07-31T05:22:54;16.00;99.90
44509;DHT22;30214;52.246;14.408;2023-07-31T05:25:21;16.00;99.90
44509;DHT22;30214;52.246;14.408;2023-07-31T05:27:50;16.00;99.90
44509;DHT22;30214;52.246;14.408;2023-07-31T05:30:17;16.00;99.90
44509;DHT22;30214;52.246;14.408;2023-07-31T05:32:45;16.00;99.90
44509;DHT22;30214;52.246;14.408;2023-07-31T05:35:12;16.00;99.90
44509;DHT22;30214;52.246;14.408;2023-07-31T05:37:39;16.00;99.90
44509;DHT22;30214;52.246;14.408;2023-07-31T05:40:07;16.00;99.90
44509;DHT22;30214;52.246;14.408;2023-07-31T05:42:34;16.00;99.90
44509;DHT22;30214;52.246;14.408;2023-07-31T05:45:06;16.00;99.90
44509;DHT22;30214;52.246;14.408;2023-07-31T05:47:33;16.00;99.90
44509;DHT22;30214;52.246;14.408;2023-07-31T05:50:00;16.00;99.90
44509;DHT22;30214;52.246;14.408;2023-07-31T05:52:27;16.00;99.90
44509;DHT22;30214;52.246;14.408;2023-07-31T05:54:55;15.90;99.90
44509;DHT22;30214;52.246;14.408;2023-07-31T05:57:23;16.00;99.90
44509;DHT22;30214;52.246;14.408;2023-07-31T05:59:50;16.00;99.90
44509;DHT22;30214;52.246;14.408;2023-07-31T06:02:18;16.00;99.90
44509;DHT22;30214;52.246;14.408;2023-07-31T06:04:45;16.00;99.90
44509;DHT22;30214;52.246;14.408;2023-07-31T06:07:12;16.00;99.90
44509;DHT22;30214;52.246;14.408;2023-07-31T06:09:39;15.90;99.90
44509;DHT22;30214;52.246;14.408;2023-07-31T06:12:06;16.00;99.90
44509;DHT22;30214;52.246;14.408;2023-07-31T06:14:34;16.00;99.90
44509;DHT22;30214;52.246;14.408;2023-07-31T06:17:01;16.00;99.90
44509;DHT22;30214;52.246;14.408;2023-07-31T06:19:30;16.00;99.90
44509;DHT22;30214;52.246;14.408;2023-07-31T06:21:58;16.00;99.90
44509;DHT22;30214;52.246;14.408;2023-07-31T06:24:25;16.00;99.90
44509;DHT22;30214;52.246;14.408;2023-07-31T06:26:52;16.00;99.90
44509;DHT22;30214;52.246;14.408;2023-07-31T06:29:19;16.00;99.90
44509;DHT22;30214;52.246;14.408;2023-07-31T06:31:46;15.90;99.90
44509;DHT22;30214;52.246;14.408;2023-07-31T06:34:13;15.90;99.90
44509;DHT22;30214;52.246;14.408;2023-07-31T06:36:42;15.90;99.90
44509;DHT22;30214;52.246;14.408;2023-07-31T06:39:09;15.80;99.90
44509;DHT22;30214;52.246;14.408;2023-07-31T06:41:36;15.80;99.90
44509;DHT22;30214;52.246;14.408;2023-07-31T06:44:06;15.90;99.90
44509;DHT22;30214;52.246;14.408;2023-07-31T06:46:33;15.90;99.90
44509;DHT22;30214;52.246;14.408;2023-07-31T06:49:00;15.90;99.90
44509;DHT22;30214;52.246;14.408;2023-07-31T06:51:27;16.00;99.90
44509;DHT22;30214;52.246;14.408;2023-07-31T06:53:58;16.00;99.90
44509;DHT22;30214;52.246;14.408;2023-07-31T06:56:25;16.00;99.90
44509;DHT22;30214;52.246;14.408;2023-07-31T06:58:53;16.10;99.90
44509;DHT22;30214;52.246;14.408;2023-07-31T07:01:20;16.20;99.90
44509;DHT22;30214;52.246;14.408;2023-07-31T07:03:47;16.20;99.90
44509;DHT22;30214;52.246;14.408;2023-07-31T07:06:16;16.20;99.90
44509;DHT22;30214;52.246;14.408;2023-07-31T07:08:43;16.30;99.90
44509;DHT22;30214;52.246;14.408;2023-07-31T07:11:11;16.30;99.90
44509;DHT22;30214;52.246;14.408;2023-07-31T07:13:39;16.40;99.90
44509;DHT22;30214;52.246;14.408;2023-07-31T07:16:06;16.40;99.90
44509;DHT22;30214;52.246;14.408;2023-07-31T07:18:33;16.40;99.90
44509;DHT22;30214;52.246;14.408;2023-07-31T07:21:01;16.30;99.90
44509;DHT22;30214;52.246;14.408;2023-07-31T07:23:29;16.30;99.90
44509;DHT22;30214;52.246;14.408;2023-07-31T07:25:57;16.30;99.90
44509;DHT22;30214;52.246;14.408;2023-07-31T07:28:25;16.40;99.90
44509;DHT22;30214;52.246;14.408;2023-07-31T07:30:54;16.30;99.90
44509;DHT22;30214;52.246;14.408;2023-07-31T07:33:21;16.30;99.90
44509;DHT22;30214;52.246;14.408;2023-07-31T07:35:48;16.30;99.90
44509;DHT22;30214;52.246;14.408;2023-07-31T07:38:15;16.40;99.90
44509;DHT22;30214;52.246;14.408;2023-07-31T07:40:42;16.30;99.90
44509;DHT22;30214;52.246;14.408;2023-07-31T07:43:09;16.40;99.90
44509;DHT22;30214;52.246;14.408;2023-07-31T07:45:38;16.50;99.90
44509;DHT22;30214;52.246;14.408;2023-07-31T07:48:05;16.50;99.90
44509;DHT22;30214;52.246;14.408;2023-07-31T07:50:32;16.60;99.90
44509;DHT22;30214;52.246;14.408;2023-07-31T07:52:59;16.60;99.90
44509;DHT22;30214;52.246;14.408;2023-07-31T07:55:26;16.70;99.90
44509;DHT22;30214;52.246;14.408;2023-07-31T07:57:53;16.70;99.90
44509;DHT22;30214;52.246;14.408;2023-07-31T08:00:20;16.70;99.90
44509;DHT22;30214;52.246;14.408;2023-07-31T08:02:49;16.80;99.90
44509;DHT22;30214;52.246;14.408;2023-07-31T08:05:16;16.80;99.90
44509;DHT22;30214;52.246;14.408;2023-07-31T08:07:43;16.80;99.90
44509;DHT22;30214;52.246;14.408;2023-07-31T08:10:10;16.80;99.90
44509;DHT22;30214;52.246;14.408;2023-07-31T08:12:37;16.70;99.90
44509;DHT22;30214;52.246;14.408;2023-07-31T08:15:06;16.70;99.90
44509;DHT22;30214;52.246;14.408;2023-07-31T08:17:33;16.70;99.90
44509;DHT22;30214;52.246;14.408;2023-07-31T08:20:01;16.70;99.90
44509;DHT22;30214;52.246;14.408;2023-07-31T08:22:29;16.70;99.90
44509;DHT22;30214;52.246;14.408;2023-07-31T08:24:56;16.70;99.90
44509;DHT22;30214;52.246;14.408;2023-07-31T08:27:23;16.70;99.90
44509;DHT22;30214;52.246;14.408;2023-07-31T08:29:52;16.60;99.90
44509;DHT22;30214;52.246;14.408;2023-07-31T08:32:20;16.60;99.90
44509;DHT22;30214;52.246;14.408;2023-07-31T08:34:47;16.60;99.90
44509;DHT22;30214;52.246;14.408;2023-07-31T08:37:16;16.60;99.90
44509;DHT22;30214;52.246;14.408;2023-07-31T08:39:43;16.60;99.90
44509;DHT22;30214;52.246;14.408;2023-07-31T08:42:10;16.60;99.90
44509;DHT22;30214;52.246;14.408;2023-07-31T08:44:37;16.70;99.90
44509;DHT22;30214;52.246;14.408;2023-07-31T08:47:06;16.80;99.90
44509;DHT22;30214;52.246;14.408;2023-07-31T08:49:34;16.80;99.90
44509;DHT22;30214;52.246;14.408;2023-07-31T08:52:01;16.80;99.90
44509;DHT22;30214;52.246;14.408;2023-07-31T08:54:30;16.80;99.90
44509;DHT22;30214;52.246;14.408;2023-07-31T08:56:59;16.80;99.90
44509;DHT22;30214;52.246;14.408;2023-07-31T08:59:29;16.80;99.90
44509;DHT22;30214;52.246;14.408;2023-07-31T09:02:01;16.80;99.90
44509;DHT22;30214;52.246;14.408;2023-07-31T09:04:30;16.80;99.90
44509;DHT22;30214;52.246;14.408;2023-07-31T09:07:01;16.80;99.90
44509;DHT22;30214;52.246;14.408;2023-07-31T09:09:31;16.80;99.90
44509;DHT22;30214;52.246;14.408;2023-07-31T09:11:59;16.80;99.90
44509;DHT22;30214;52.246;14.408;2023-07-31T09:14:28;16.80;99.90
44509;DHT22;30214;52.246;14.408;2023-07-31T09:16:56;16.80;99.90
44509;DHT22;30214;52.246;14.408;2023-07-31T09:19:33;16.90;99.90
44509;DHT22;30214;52.246;14.408;2023-07-31T09:22:04;16.90;99.90
44509;DHT22;30214;52.246;14.408;2023-07-31T09:24:33;16.90;99.90
44509;DHT22;30214;52.246;14.408;2023-07-31T09:27:01;16.90;99.90
44509;DHT22;30214;52.246;14.408;2023-07-31T09:29:29;16.90;99.90
44509;DHT22;30214;52.246;14.408;2023-07-31T09:31:56;17.00;99.90
44509;DHT22;30214;52.246;14.408;2023-07-31T09:34:29;17.10;99.90
44509;DHT22;30214;52.246;14.408;2023-07-31T09:37:01;17.20;99.90
44509;DHT22;30214;52.246;14.408;2023-07-31T09:39:29;17.30;99.90
44509;DHT22;30214;52.246;14.408;2023-07-31T09:41:58;17.40;99.90
44509;DHT22;30214;52.246;14.408;2023-07-31T09:44:39;17.60;99.90
44509;DHT22;30214;52.246;14.408;2023-07-31T09:47:08;17.80;99.90
44509;DHT22;30214;52.246;14.408;2023-07-31T09:49:47;17.80;99.90
44509;DHT22;30214;52.246;14.408;2023-07-31T09:52:14;17.70;99.90
44509;DHT22;30214;52.246;14.408;2023-07-31T09:54:42;17.60;99.90
44509;DHT22;30214;52.246;14.408;2023-07-31T09:57:11;17.50;99.90
44509;DHT22;30214;52.246;14.408;2023-07-31T09:59:39;17.50;99.90
44509;DHT22;30214;52.246;14.408;2023-07-31T10:02:09;17.40;99.90
44509;DHT22;30214;52.246;14.408;2023-07-31T10:04:43;17.30;99.90
44509;DHT22;30214;52.246;14.408;2023-07-31T10:07:11;17.40;99.90
44509;DHT22;30214;52.246;14.408;2023-07-31T10:09:38;17.50;99.90
44509;DHT22;30214;52.246;14.408;2023-07-31T10:12:08;17.50;99.90
44509;DHT22;30214;52.246;14.408;2023-07-31T10:14:38;17.50;99.90
44509;DHT22;30214;52.246;14.408;2023-07-31T10:17:06;17.70;99.90
44509;DHT22;30214;52.246;14.408;2023-07-31T10:19:35;17.90;99.90
44509;DHT22;30214;52.246;14.408;2023-07-31T10:22:03;18.10;99.90
44509;DHT22;30214;52.246;14.408;2023-07-31T10:24:31;18.30;99.90
44509;DHT22;30214;52.246;14.408;2023-07-31T10:27:01;18.80;99.90
44509;DHT22;30214;52.246;14.408;2023-07-31T10:29:29;19.10;99.90
44509;DHT22;30214;52.246;14.408;2023-07-31T10:31:59;19.40;99.90
44509;DHT22;30214;52.246;14.408;2023-07-31T10:34:27;19.70;99.90
44509;DHT22;30214;52.246;14.408;2023-07-31T10:37:22;20.00;99.90
44509;DHT22;30214;52.246;14.408;2023-07-31T10:40:00;20.20;99.90
44509;DHT22;30214;52.246;14.408;2023-07-31T10:42:29;20.40;99.90
44509;DHT22;30214;52.246;14.408;2023-07-31T10:44:58;20.40;99.90
44509;DHT22;30214;52.246;14.408;2023-07-31T10:47:27;20.30;99.90
44509;DHT22;30214;52.246;14.408;2023-07-31T10:50:19;20.10;99.90
44509;DHT22;30214;52.246;14.408;2023-07-31T10:52:47;20.00;99.90
44509;DHT22;30214;52.246;14.408;2023-07-31T10:55:30;20.10;99.90
44509;DHT22;30214;52.246;14.408;2023-07-31T10:58:05;20.20;99.90
44509;DHT22;30214;52.246;14.408;2023-07-31T11:00:33;20.00;99.90
44509;DHT22;30214;52.246;14.408;2023-07-31T11:03:03;19.90;99.90
44509;DHT22;30214;52.246;14.408;2023-07-31T11:05:48;19.80;99.90
44509;DHT22;30214;52.246;14.408;2023-07-31T11:08:17;19.60;99.90
44509;DHT22;30214;52.246;14.408;2023-07-31T11:10:46;19.50;99.90
44509;DHT22;30214;52.246;14.408;2023-07-31T11:13:13;19.60;99.90
44509;DHT22;30214;52.246;14.408;2023-07-31T11:15:41;19.60;99.90
44509;DHT22;30214;52.246;14.408;2023-07-31T11:18:10;19.70;99.90
44509;DHT22;30214;52.246;14.408;2023-07-31T11:20:38;19.80;99.90
44509;DHT22;30214;52.246;14.408;2023-07-31T11:23:07;19.90;99.90
44509;DHT22;30214;52.246;14.408;2023-07-31T11:25:36;20.00;99.90
44509;DHT22;30214;52.246;14.408;2023-07-31T11:28:04;19.80;99.90
44509;DHT22;30214;52.246;14.408;2023-07-31T11:30:31;19.70;99.90
44509;DHT22;30214;52.246;14.408;2023-07-31T11:33:00;19.60;99.90
44509;DHT22;30214;52.246;14.408;2023-07-31T11:35:31;19.70;99.90
44509;DHT22;30214;52.246;14.408;2023-07-31T11:37:58;19.90;99.90
44509;DHT22;30214;52.246;14.408;2023-07-31T11:40:25;20.20;99.90
44509;DHT22;30214;52.246;14.408;2023-07-31T11:42:56;20.30;99.90
44509;DHT22;30214;52.246;14.408;2023-07-31T11:45:25;20.50;99.90
44509;DHT22;30214;52.246;14.408;2023-07-31T11:47:54;20.50;99.90
44509;DHT22;30214;52.246;14.408;2023-07-31T11:50:22;20.50;99.90
44509;DHT22;30214;52.246;14.408;2023-07-31T11:52:54;20.60;99.90
44509;DHT22;30214;52.246;14.408;2023-07-31T11:55:23;20.60;99.90
44509;DHT22;30214;52.246;14.408;2023-07-31T11:57:51;20.90;99.90
44509;DHT22;30214;52.246;14.408;2023-07-31T12:00:19;21.10;99.90
44509;DHT22;30214;52.246;14.408;2023-07-31T12:02:47;21.10;99.90
44509;DHT22;30214;52.246;14.408;2023-07-31T12:05:15;21.30;99.90
44509;DHT22;30214;52.246;14.408;2023-07-31T12:07:52;21.60;99.90
44509;DHT22;30214;52.246;14.408;2023-07-31T12:10:24;21.80;99.90
44509;DHT22;30214;52.246;14.408;2023-07-31T12:13:02;21.80;99.90
44509;DHT22;30214;52.246;14.408;2023-07-31T12:15:33;21.40;99.90
44509;DHT22;30214;52.246;14.408;2023-07-31T12:18:04;21.40;99.90
44509;DHT22;30214;52.246;14.408;2023-07-31T12:20:32;21.40;99.90
44509;DHT22;30214;52.246;14.408;2023-07-31T12:23:01;21.40;99.90
44509;DHT22;30214;52.246;14.408;2023-07-31T12:25:30;21.40;99.90
44509;DHT22;30214;52.246;14.408;2023-07-31T12:27:57;21.50;99.90
44509;DHT22;30214;52.246;14.408;2023-07-31T12:30:28;21.70;99.90
44509;DHT22;30214;52.246;14.408;2023-07-31T12:32:55;21.80;99.90
44509;DHT22;30214;52.246;14.408;2023-07-31T12:35:23;21.80;99.90
44509;DHT22;30214;52.246;14.408;2023-07-31T12:37:52;21.90;99.90
44509;DHT22;30214;52.246;14.408;2023-07-31T12:40:20;22.00;99.90
44509;DHT22;30214;52.246;14.408;2023-07-31T12:42:47;21.70;99.90
44509;DHT22;30214;52.246;14.408;2023-07-31T12:45:15;21.40;99.90
44509;DHT22;30214;52.246;14.408;2023-07-31T12:47:42;21.20;99.90
44509;DHT22;30214;52.246;14.408;2023-07-31T12:50:09;21.20;99.90
44509;DHT22;30214;52.246;14.408;2023-07-31T12:52:36;21.00;99.90
44509;DHT22;30214;52.246;14.408;2023-07-31T12:55:04;20.80;99.90
44509;DHT22;30214;52.246;14.408;2023-07-31T12:57:32;20.80;99.90
44509;DHT22;30214;52.246;14.408;2023-07-31T12:59:59;20.70;99.90
44509;DHT22;30214;52.246;14.408;2023-07-31T13:02:26;20.60;99.90
44509;DHT22;30214;52.246;14.408;2023-07-31T13:04:53;20.50;99.90
44509;DHT22;30214;52.246;14.408;2023-07-31T13:07:22;20.30;99.90
44509;DHT22;30214;52.246;14.408;2023-07-31T13:09:49;20.20;99.90
44509;DHT22;30214;52.246;14.408;2023-07-31T13:12:16;20.20;99.90
44509;DHT22;30214;52.246;14.408;2023-07-31T13:14:45;20.30;99.90
44509;DHT22;30214;52.246;14.408;2023-07-31T13:17:12;20.60;99.90
44509;DHT22;30214;52.246;14.408;2023-07-31T13:19:39;20.80;99.90
44509;DHT22;30214;52.246;14.408;2023-07-31T13:22:06;20.90;99.90
44509;DHT22;30214;52.246;14.408;2023-07-31T13:24:33;21.00;99.90
44509;DHT22;30214;52.246;14.408;2023-07-31T13:26:59;21.00;99.90
44509;DHT22;30214;52.246;14.408;2023-07-31T13:29:27;21.10;99.90
44509;DHT22;30214;52.246;14.408;2023-07-31T13:31:57;21.20;99.90
44509;DHT22;30214;52.246;14.408;2023-07-31T13:34:24;21.20;99.90
44509;DHT22;30214;52.246;14.408;2023-07-31T13:36:51;21.20;99.90
44509;DHT22;30214;52.246;14.408;2023-07-31T13:39:18;21.30;99.90
44509;DHT22;30214;52.246;14.408;2023-07-31T13:41:45;21.30;99.90
44509;DHT22;30214;52.246;14.408;2023-07-31T13:44:12;21.50;99.90
44509;DHT22;30214;52.246;14.408;2023-07-31T13:46:39;21.60;99.90
44509;DHT22;30214;52.246;14.408;2023-07-31T13:49:08;21.80;99.90
44509;DHT22;30214;52.246;14.408;2023-07-31T13:51:35;22.00;99.90
44509;DHT22;30214;52.246;14.408;2023-07-31T13:54:03;22.20;99.90
44509;DHT22;30214;52.246;14.408;2023-07-31T13:56:30;22.20;99.90
44509;DHT22;30214;52.246;14.408;2023-07-31T13:58:57;22.10;99.90
44509;DHT22;30214;52.246;14.408;2023-07-31T14:01:26;22.10;99.90
44509;DHT22;30214;52.246;14.408;2023-07-31T14:03:53;22.20;99.90
44509;DHT22;30214;52.246;14.408;2023-07-31T14:06:22;22.20;99.90
44509;DHT22;30214;52.246;14.408;2023-07-31T14:08:49;22.20;99.90
44509;DHT22;30214;52.246;14.408;2023-07-31T14:11:16;22.30;99.90
44509;DHT22;30214;52.246;14.408;2023-07-31T14:13:43;22.40;99.90
44509;DHT22;30214;52.246;14.408;2023-07-31T14:16:10;22.40;99.90
44509;DHT22;30214;52.246;14.408;2023-07-31T14:18:37;22.30;99.90
44509;DHT22;30214;52.246;14.408;2023-07-31T14:21:04;22.20;99.90
44509;DHT22;30214;52.246;14.408;2023-07-31T14:23:33;22.20;99.90
44509;DHT22;30214;52.246;14.408;2023-07-31T14:26:00;22.20;99.90
44509;DHT22;30214;52.246;14.408;2023-07-31T14:28:27;22.30;99.90
44509;DHT22;30214;52.246;14.408;2023-07-31T14:30:54;22.40;99.90
44509;DHT22;30214;52.246;14.408;2023-07-31T14:33:21;22.60;99.90
44509;DHT22;30214;52.246;14.408;2023-07-31T14:35:49;22.40;99.90
44509;DHT22;30214;52.246;14.408;2023-07-31T14:38:16;22.40;99.90
44509;DHT22;30214;52.246;14.408;2023-07-31T14:40:44;22.50;99.90
44509;DHT22;30214;52.246;14.408;2023-07-31T14:43:11;22.50;99.90
44509;DHT22;30214;52.246;14.408;2023-07-31T14:45:38;22.50;99.90
44509;DHT22;30214;52.246;14.408;2023-07-31T14:48:05;22.40;99.90
44509;DHT22;30214;52.246;14.408;2023-07-31T14:50:32;22.40;99.90
44509;DHT22;30214;52.246;14.408;2023-07-31T14:52:59;22.40;99.90
44509;DHT22;30214;52.246;14.408;2023-07-31T14:55:29;22.40;99.90
44509;DHT22;30214;52.246;14.408;2023-07-31T14:57:57;22.40;99.90
44509;DHT22;30214;52.246;14.408;2023-07-31T15:00:24;22.40;99.90
44509;DHT22;30214;52.246;14.408;2023-07-31T15:02:52;22.50;99.90
44509;DHT22;30214;52.246;14.408;2023-07-31T15:05:22;22.50;99.90
44509;DHT22;30214;52.246;14.408;2023-07-31T15:07:49;22.50;99.90
44509;DHT22;30214;52.246;14.408;2023-07-31T15:10:16;22.50;99.90
44509;DHT22;30214;52.246;14.408;2023-07-31T15:12:43;22.60;99.90
44509;DHT22;30214;52.246;14.408;2023-07-31T15:15:11;22.60;99.90
44509;DHT22;30214;52.246;14.408;2023-07-31T15:17:38;22.70;99.90
44509;DHT22;30214;52.246;14.408;2023-07-31T15:20:06;22.80;99.90
44509;DHT22;30214;52.246;14.408;2023-07-31T15:22:34;22.90;99.90